CJZ3 weather

Melfort Airport
Melfort, Saskatchewan, Canada

Public forecast

Using degrees Celsius for public forecast. Weather courtesy of forecast.io.

METAR (pilot weather report)

Closest report is Nipawin Airport, 37.5 nm (69.4 km) NE. Retrieved 2019/05/22 10:00 UTC (59 minutes ago):

CYBU 221000Z AUTO 33006KT 9SM CLR 06/02 A3004 RMK SLP183

TAF (pilot weather forecast)

Closest forecast is Prince Albert Glass Field, 40.9 nm (75.7 km) WNW. Retrieved 2019/05/22 07:42 UTC (3 hours ago):

TAF CYPA 220638Z 2207/2219 VRB03KT P6SM FEW100 FM221600 01008KT P6SM SCT100 RMK NXT FCST BY 221300Z